Original METAR for KUES:
072235Z 24006KT 10SM BKN016 BKN060 OVC110 25/22 A3002

Wind: 240° at 6 knots
Visibility: 10 statute miles
Sky conditions: Broken clouds at 1,600 feet
Temperature: 77°F
Dew Point: 71.6°F
Altimeter: 30.02

Remarks: None

NOTE:
This METAR was retrieved from metars.com at:
http://www.metars.com/stations/KUES.html


Cessnas2Oshkosh, C2O, CessnaBaseCamp and The Pirep | Testimonials | Donations | FAQ | Privacy | Contact Us
are trademarks of Cessnas 2 Oshkosh, Inc. - Dothan, AL Copyright © 2008 - 2022 Cessnas 2 Oshkosh, Inc. All rights reserved.